Time;durP1;ratioP1;P1;durP2;ratioP2;P2;SDS_P1;SDS_P2;PMS_P1;PMS_P2;Temp;Humidity;BMP_temperature;BMP_pressure;BME280_temperature;BME280_humidity;BME280_pressure;Samples;Min_cycle;Max_cycle;Signal;HPM_P1;HPM_P2
2022/05/16 00:00:11;;;;;;;2.92;1.60;;;19.20;45.90;;;;;;5114520;28;20047;-75
2022/05/16 00:02:36;;;;;;;5.18;2.10;;;19.20;46.00;;;;;;5096185;28;20388;-75
2022/05/16 00:05:03;;;;;;;4.90;2.47;;;19.10;45.80;;;;;;5114528;28;20020;-75
2022/05/16 00:07:29;;;;;;;5.60;2.00;;;19.10;45.80;;;;;;5104148;28;20459;-75
2022/05/16 00:09:55;;;;;;;3.85;1.90;;;19.10;46.00;;;;;;5094269;28;20012;-75
2022/05/16 00:12:20;;;;;;;2.85;1.65;;;19.00;45.90;;;;;;5094233;28;20028;-75
2022/05/16 00:14:47;;;;;;;3.17;1.63;;;19.00;46.00;;;;;;5075992;28;20039;-75
2022/05/16 00:17:13;;;;;;;4.43;1.80;;;19.00;46.20;;;;;;5094127;28;20051;-75
2022/05/16 00:19:39;;;;;;;4.93;2.10;;;18.90;46.40;;;;;;5094140;28;20028;-75
2022/05/16 00:22:06;;;;;;;5.22;1.92;;;18.90;46.70;;;;;;5094122;28;20381;-75
2022/05/16 00:24:32;;;;;;;2.83;1.80;;;18.90;46.80;;;;;;5094054;28;20017;-75
2022/05/16 00:27:01;;;;;;;3.08;1.70;;;18.90;47.00;;;;;;5093973;28;20024;-75
2022/05/16 00:29:28;;;;;;;3.03;1.70;;;18.80;46.80;;;;;;5075692;28;20027;-75
2022/05/16 00:31:55;;;;;;;6.63;2.00;;;18.80;47.00;;;;;;5105592;28;20028;-75
2022/05/16 00:34:22;;;;;;;4.05;2.05;;;18.80;47.20;;;;;;5095688;28;20030;-75
2022/05/16 00:36:48;;;;;;;4.28;2.10;;;18.70;47.00;;;;;;5114023;28;20028;-75
2022/05/16 00:39:20;;;;;;;3.90;1.90;;;18.70;47.40;;;;;;5113995;28;20450;-75
2022/05/16 00:41:47;;;;;;;4.07;2.20;;;18.60;47.50;;;;;;5113815;28;20102;-75
2022/05/16 00:44:13;;;;;;;3.85;1.70;;;18.60;47.60;;;;;;5095588;28;20423;-75
2022/05/16 00:46:39;;;;;;;3.13;2.17;;;18.60;48.00;;;;;;5113839;28;20028;-75
2022/05/16 00:49:11;;;;;;;3.55;1.90;;;18.50;48.00;;;;;;5114032;28;20015;-75
2022/05/16 00:51:59;;;;;;;2.72;1.63;;;18.50;48.20;;;;;;5111539;28;20024;-75
2022/05/16 00:54:33;;;;;;;5.88;2.05;;;18.50;48.40;;;;;;5093348;28;20031;-75
2022/05/16 00:57:04;;;;;;;4.00;2.05;;;18.50;48.50;;;;;;5075263;28;20020;-75
2022/05/16 00:59:51;;;;;;;4.20;2.35;;;18.40;48.40;;;;;;5075018;28;20106;-75
2022/05/16 01:05:03;;;;;;;6.18;2.28;;;18.40;49.10;;;;;;5072417;28;20032;-75
2022/05/16 01:07:35;;;;;;;6.43;1.88;;;18.40;49.00;;;;;;5072390;28;20032;-75
2022/05/16 01:10:03;;;;;;;4.82;2.30;;;18.30;49.30;;;;;;5055413;28;20098;-75
2022/05/16 01:12:35;;;;;;;2.80;1.85;;;18.30;49.20;;;;;;5053064;28;20025;-75
2022/05/16 01:15:05;;;;;;;2.78;2.13;;;18.30;49.50;;;;;;5052235;28;20102;-75
2022/05/16 01:17:30;;;;;;;3.80;2.05;;;18.20;49.40;;;;;;5052213;28;20086;-75
2022/05/16 01:19:56;;;;;;;3.15;1.80;;;18.20;49.70;;;;;;5034383;28;20553;-75
2022/05/16 01:22:31;;;;;;;10.23;2.55;;;18.20;49.90;;;;;;5052170;28;20025;-75
2022/05/16 01:25:04;;;;;;;3.30;2.10;;;18.20;50.30;;;;;;5052167;28;20021;-75
2022/05/16 01:27:40;;;;;;;3.63;2.23;;;18.20;49.90;;;;;;5052203;28;20378;-75
2022/05/16 01:30:07;;;;;;;4.10;2.30;;;18.20;50.40;;;;;;5060717;28;20467;-74
2022/05/16 01:32:33;;;;;;;8.07;2.53;;;18.10;50.10;;;;;;5056759;28;20021;-75
2022/05/16 01:34:59;;;;;;;2.47;2.08;;;18.10;50.00;;;;;;5052169;28;20390;-75
2022/05/16 01:38:18;;;;;;;5.15;2.28;;;18.10;50.00;;;;;;5052178;28;20029;-75
2022/05/16 01:40:10;;;;;;;3.05;2.28;;;18.10;50.30;;;;;;5051868;28;20032;-75
2022/05/16 01:42:36;;;;;;;4.28;2.25;;;18.10;50.20;;;;;;5051920;28;20025;-75
2022/05/16 01:45:02;;;;;;;4.32;2.35;;;18.00;50.40;;;;;;5052061;28;20021;-75
2022/05/16 01:47:28;;;;;;;4.03;2.53;;;18.00;50.60;;;;;;5051989;28;20486;-75
2022/05/16 01:49:54;;;;;;;4.53;2.05;;;18.00;50.90;;;;;;5051996;28;20025;-75
2022/05/16 01:52:19;;;;;;;5.65;2.30;;;18.00;50.70;;;;;;5051985;28;20029;-75
2022/05/16 01:54:45;;;;;;;3.20;2.40;;;18.00;50.80;;;;;;5034011;28;20516;-75
2022/05/16 01:57:11;;;;;;;6.82;2.30;;;18.00;51.10;;;;;;5051975;28;20501;-75
2022/05/16 01:59:36;;;;;;;5.35;3.00;;;17.90;50.90;;;;;;5051904;28;20049;-75
2022/05/16 02:02:02;;;;;;;3.78;2.45;;;17.90;51.20;;;;;;5052050;28;20072;-75
2022/05/16 02:04:28;;;;;;;4.13;2.30;;;17.90;51.20;;;;;;5051766;28;20100;-75
2022/05/16 02:06:54;;;;;;;4.57;2.25;;;17.90;51.50;;;;;;5051871;28;20013;-75
2022/05/16 02:09:20;;;;;;;4.65;2.25;;;17.90;51.40;;;;;;5051861;28;20363;-75
2022/05/16 02:11:46;;;;;;;7.15;2.60;;;17.90;51.40;;;;;;5033901;28;20353;-75
2022/05/16 02:14:12;;;;;;;5.25;2.50;;;17.80;51.70;;;;;;5051808;28;20365;-75
2022/05/16 02:16:38;;;;;;;3.17;2.35;;;17.80;51.70;;;;;;5051742;28;20017;-75
2022/05/16 02:19:03;;;;;;;4.60;2.20;;;17.80;51.60;;;;;;5051725;28;20533;-75
2022/05/16 02:26:58;;;;;;;4.32;2.58;;;17.70;51.80;;;;;;5055427;28;20492;-75
2022/05/16 02:29:23;;;;;;;6.75;2.65;;;17.70;51.90;;;;;;5069566;28;20025;-75
2022/05/16 02:31:50;;;;;;;4.32;2.63;;;17.70;51.90;;;;;;5057295;28;20032;-75
2022/05/16 02:34:16;;;;;;;2.97;2.03;;;17.70;52.10;;;;;;5075213;28;20021;-75
2022/05/16 02:36:42;;;;;;;3.60;2.55;;;17.60;51.90;;;;;;5075128;28;20150;-75
2022/05/16 02:39:09;;;;;;;3.00;2.35;;;17.60;52.10;;;;;;5075131;28;20069;-75
2022/05/16 02:41:34;;;;;;;5.28;3.20;;;17.60;52.70;;;;;;5074871;28;20032;-75
2022/05/16 02:44:00;;;;;;;4.80;2.80;;;17.60;52.80;;;;;;5074994;28;20020;-75
2022/05/16 02:46:26;;;;;;;4.40;2.55;;;17.60;53.00;;;;;;5074902;28;20032;-75
2022/05/16 02:48:52;;;;;;;2.53;2.03;;;17.60;52.90;;;;;;5056826;28;20029;-75
2022/05/16 02:51:18;;;;;;;4.15;2.45;;;17.60;52.70;;;;;;5056931;28;20028;-75
2022/05/16 02:53:43;;;;;;;4.85;2.83;;;17.60;52.70;;;;;;5074850;28;20021;-75
2022/05/16 02:56:09;;;;;;;10.30;2.60;;;17.60;53.00;;;;;;5075212;28;20086;-75
2022/05/16 02:58:35;;;;;;;5.35;2.42;;;17.60;53.10;;;;;;5074534;28;20391;-75
2022/05/16 03:01:01;;;;;;;5.50;2.25;;;17.60;52.90;;;;;;5056651;28;20513;-75
2022/05/16 03:03:26;;;;;;;7.80;2.38;;;17.60;52.60;;;;;;5059613;28;20055;-75
2022/05/16 03:05:52;;;;;;;4.90;2.67;;;17.50;52.60;;;;;;5057978;28;20020;-75
2022/05/16 03:08:18;;;;;;;3.88;2.28;;;17.50;52.80;;;;;;5054254;28;20044;-75
2022/05/16 03:10:44;;;;;;;3.88;2.63;;;17.50;52.80;;;;;;5058002;28;20021;-75
2022/05/16 03:13:09;;;;;;;6.45;2.60;;;17.50;53.20;;;;;;5054440;28;20064;-75
2022/05/16 03:15:35;;;;;;;5.15;2.13;;;17.50;53.60;;;;;;5054524;28;20036;-75
2022/05/16 03:18:01;;;;;;;4.13;2.10;;;17.50;53.30;;;;;;5054377;28;20437;-75
2022/05/16 03:20:27;;;;;;;5.18;2.15;;;17.50;53.20;;;;;;5054332;28;20450;-75
2022/05/16 03:22:53;;;;;;;6.18;2.70;;;17.50;53.30;;;;;;5054213;28;20108;-75
2022/05/16 03:25:19;;;;;;;2.47;1.95;;;17.50;53.50;;;;;;5054217;28;20021;-75
2022/05/16 03:27:44;;;;;;;3.88;2.25;;;17.50;53.40;;;;;;5066511;28;20096;-75
2022/05/16 03:30:11;;;;;;;4.82;2.35;;;17.50;53.50;;;;;;5074160;28;20527;-75
2022/05/16 03:32:37;;;;;;;3.88;2.35;;;17.50;53.50;;;;;;5073588;28;20052;-75
2022/05/16 03:35:04;;;;;;;3.30;2.30;;;17.60;53.60;;;;;;5074022;28;20398;-75
2022/05/16 03:37:30;;;;;;;3.00;2.30;;;17.50;53.50;;;;;;5073988;28;20470;-75
2022/05/16 03:42:39;;;;;;;8.75;2.55;;;17.60;53.60;;;;;;5073881;28;20095;-75
2022/05/16 03:45:05;;;;;;;5.50;2.85;;;17.60;53.60;;;;;;5073874;28;20024;-75
2022/05/16 03:47:31;;;;;;;8.35;2.40;;;17.60;53.90;;;;;;5055874;28;20053;-75
2022/05/16 03:49:57;;;;;;;3.75;2.70;;;17.60;53.90;;;;;;5073869;28;20382;-75
2022/05/16 03:52:23;;;;;;;7.68;2.95;;;17.70;54.00;;;;;;5073723;28;20474;-75
2022/05/16 03:54:49;;;;;;;4.45;2.38;;;17.70;54.30;;;;;;5074361;28;20029;-75
2022/05/16 03:57:15;;;;;;;6.50;2.47;;;17.70;54.30;;;;;;5073623;28;20029;-75
2022/05/16 03:59:41;;;;;;;5.35;2.70;;;17.80;54.40;;;;;;5073390;28;20106;-75
2022/05/16 04:02:08;;;;;;;4.13;2.83;;;17.80;54.40;;;;;;5055546;28;20070;-75
2022/05/16 04:04:34;;;;;;;7.55;3.00;;;17.90;54.70;;;;;;5073393;28;20099;-75
2022/05/16 04:07:00;;;;;;;5.78;2.63;;;17.90;54.90;;;;;;5073453;28;20020;-75
2022/05/16 04:09:26;;;;;;;3.67;2.55;;;17.90;54.60;;;;;;5073372;28;20099;-75
2022/05/16 04:11:52;;;;;;;7.60;2.63;;;18.00;54.60;;;;;;5055400;28;20518;-75
2022/05/16 04:14:17;;;;;;;8.13;3.22;;;18.00;55.10;;;;;;5073245;28;20094;-75
2022/05/16 04:16:43;;;;;;;6.05;3.20;;;18.10;55.20;;;;;;5055207;28;20138;-75
2022/05/16 04:19:09;;;;;;;9.23;2.88;;;18.10;55.00;;;;;;5072983;28;20462;-75
2022/05/16 04:21:36;;;;;;;8.20;3.20;;;18.20;54.70;;;;;;5055055;28;20036;-75
2022/05/16 04:24:02;;;;;;;9.10;3.47;;;18.20;54.60;;;;;;5061867;28;20029;-75
2022/05/16 04:26:28;;;;;;;4.68;3.55;;;18.30;54.70;;;;;;5066218;28;20013;-76
2022/05/16 04:28:54;;;;;;;7.95;3.30;;;18.40;54.80;;;;;;5054848;28;20023;-75
2022/05/16 04:31:20;;;;;;;6.68;3.08;;;18.40;54.80;;;;;;5072621;28;20100;-75
2022/05/16 04:33:45;;;;;;;7.97;4.53;;;18.50;54.80;;;;;;5072737;28;20089;-75
2022/05/16 04:36:11;;;;;;;6.25;2.75;;;18.50;54.70;;;;;;5054901;28;20052;-75
2022/05/16 04:38:37;;;;;;;4.03;2.60;;;18.60;54.30;;;;;;5054901;28;20390;-75
2022/05/16 04:43:47;;;;;;;;;;;18.70;53.80;;;;;;5072353;28;20047;-75
2022/05/16 04:46:13;;;;;;;3.95;2.58;;;18.80;53.30;;;;;;5052625;28;19909;-75
2022/05/16 04:48:39;;;;;;;10.50;3.15;;;18.80;53.30;;;;;;5054341;28;20096;-75
2022/05/16 04:51:04;;;;;;;8.90;3.28;;;18.80;53.30;;;;;;5052526;28;20025;-75
2022/05/16 04:53:30;;;;;;;8.23;3.20;;;18.80;53.50;;;;;;5052514;28;20424;-75
2022/05/16 04:55:56;;;;;;;9.50;4.10;;;18.90;53.40;;;;;;5060814;28;20523;-75
2022/05/16 04:58:23;;;;;;;9.98;3.08;;;18.90;53.30;;;;;;5074271;28;20044;-75
2022/05/16 05:00:48;;;;;;;11.07;3.15;;;18.90;53.20;;;;;;5072520;28;20023;-75
2022/05/16 05:03:14;;;;;;;13.77;3.30;;;19.00;53.20;;;;;;5072369;28;20032;-75
2022/05/16 05:05:40;;;;;;;21.55;3.65;;;19.00;53.00;;;;;;5072320;28;20158;-75
2022/05/16 05:08:06;;;;;;;8.55;3.30;;;19.00;52.90;;;;;;5070042;28;20028;-75
2022/05/16 05:16:17;;;;;;;5.72;2.83;;;19.10;52.80;;;;;;5052185;28;20172;-75
2022/05/16 05:18:43;;;;;;;5.97;3.03;;;19.10;52.70;;;;;;5034210;28;20033;-75
2022/05/16 05:21:09;;;;;;;5.63;2.65;;;19.20;52.60;;;;;;5052293;28;20032;-75
2022/05/16 05:23:38;;;;;;;7.32;2.65;;;19.20;52.30;;;;;;5053301;28;20386;-75
2022/05/16 05:26:05;;;;;;;7.00;3.30;;;19.30;52.20;;;;;;5065842;28;20021;-75
2022/05/16 05:28:32;;;;;;;9.45;2.83;;;19.30;52.40;;;;;;5054133;28;20025;-75
2022/05/16 05:30:59;;;;;;;13.10;3.17;;;19.40;52.40;;;;;;5072121;28;20013;-75
2022/05/16 05:33:25;;;;;;;6.75;2.80;;;19.50;52.30;;;;;;5072158;28;20355;-75
2022/05/16 05:35:50;;;;;;;5.18;3.05;;;19.60;52.20;;;;;;5054078;28;20025;-75
2022/05/16 05:38:17;;;;;;;7.85;2.70;;;19.70;51.90;;;;;;5054068;28;20032;-75
2022/05/16 05:40:43;;;;;;;5.85;2.90;;;19.80;51.30;;;;;;5053937;28;20099;-75
2022/05/16 05:43:09;;;;;;;7.50;2.67;;;19.90;50.60;;;;;;5071686;28;20066;-75
2022/05/16 05:45:36;;;;;;;9.27;3.00;;;19.90;50.50;;;;;;5071771;28;20048;-75
2022/05/16 05:48:03;;;;;;;7.18;3.05;;;20.00;50.20;;;;;;5072024;28;20573;-75
2022/05/16 05:50:29;;;;;;;5.63;2.78;;;20.10;50.20;;;;;;5053753;28;20025;-75
2022/05/16 05:52:54;;;;;;;5.00;2.70;;;20.20;50.20;;;;;;5064971;28;20115;-75
2022/05/16 05:55:20;;;;;;;11.93;3.28;;;20.20;49.80;;;;;;5053323;28;20057;-75
2022/05/16 05:57:46;;;;;;;4.45;2.90;;;20.30;49.70;;;;;;5055221;28;20025;-75
2022/05/16 06:00:13;;;;;;;4.30;3.20;;;20.40;49.60;;;;;;5055481;28;20108;-75
2022/05/16 06:02:41;;;;;;;6.18;2.90;;;20.50;49.20;;;;;;5055697;28;20024;-75
2022/05/16 06:05:08;;;;;;;5.80;3.30;;;20.50;49.10;;;;;;5075768;28;20032;-75
2022/05/16 06:07:34;;;;;;;7.78;3.50;;;20.60;48.90;;;;;;5065382;28;20013;-76
2022/05/16 06:10:00;;;;;;;8.00;3.15;;;20.70;48.80;;;;;;5055703;28;20028;-75
2022/05/16 06:12:26;;;;;;;5.20;2.92;;;20.70;48.80;;;;;;5055635;28;20025;-75
2022/05/16 06:14:52;;;;;;;10.90;3.35;;;20.80;48.70;;;;;;5055425;28;20020;-75
2022/05/16 06:17:20;;;;;;;8.13;3.42;;;20.80;48.70;;;;;;5055323;28;20021;-75
2022/05/16 06:19:46;;;;;;;5.70;3.40;;;20.90;48.60;;;;;;5058889;28;20028;-75
2022/05/16 06:22:12;;;;;;;8.13;4.00;;;21.00;48.50;;;;;;5067481;28;20048;-75
2022/05/16 06:27:22;;;;;;;8.60;3.88;;;21.10;47.80;;;;;;5068367;28;20504;-75
2022/05/16 06:29:48;;;;;;;9.65;4.80;;;21.20;47.70;;;;;;5070373;28;20380;-75
2022/05/16 06:32:14;;;;;;;10.63;4.93;;;21.30;47.50;;;;;;5054351;28;20032;-75
2022/05/16 06:34:40;;;;;;;11.25;6.43;;;21.40;47.20;;;;;;5055153;28;20082;-75
2022/05/16 06:37:06;;;;;;;19.88;7.38;;;21.40;47.00;;;;;;5058229;28;20417;-75
2022/05/16 06:39:32;;;;;;;9.35;5.47;;;21.50;46.90;;;;;;5041798;28;20025;-75
2022/05/16 06:41:58;;;;;;;11.45;6.50;;;21.60;47.00;;;;;;5061096;28;20381;-76
2022/05/16 06:44:23;;;;;;;9.57;5.63;;;21.70;46.90;;;;;;5075453;28;20070;-74
2022/05/16 06:46:49;;;;;;;11.23;6.05;;;21.70;46.70;;;;;;5075535;28;20035;-76
2022/05/16 06:49:15;;;;;;;15.32;6.03;;;21.80;46.70;;;;;;5060254;28;20100;-75
2022/05/16 06:51:41;;;;;;;11.63;6.00;;;21.90;46.60;;;;;;5056262;28;20056;-75
2022/05/16 06:54:07;;;;;;;15.23;7.65;;;22.00;46.50;;;;;;5057073;28;20017;-75
2022/05/16 06:56:33;;;;;;;13.25;6.25;;;22.10;46.20;;;;;;5059305;28;20025;-75
2022/05/16 06:58:59;;;;;;;14.43;7.47;;;22.20;46.20;;;;;;5056652;28;20133;-75
2022/05/16 07:01:24;;;;;;;14.10;7.38;;;22.20;45.80;;;;;;5069189;28;20099;-75
2022/05/16 07:03:50;;;;;;;15.82;7.47;;;22.30;45.60;;;;;;5073847;28;20462;-77
2022/05/16 07:06:16;;;;;;;14.50;7.32;;;22.40;45.60;;;;;;5071711;28;20473;-75
2022/05/16 07:08:42;;;;;;;14.13;9.05;;;22.40;45.40;;;;;;5074317;28;20024;-75
2022/05/16 07:11:09;;;;;;;18.63;8.50;;;22.50;44.90;;;;;;5074677;28;20424;-75
2022/05/16 07:13:35;;;;;;;23.48;9.90;;;22.50;44.70;;;;;;5077838;28;20471;-75
2022/05/16 07:16:01;;;;;;;24.77;8.57;;;22.60;44.90;;;;;;5077788;28;20057;-76
2022/05/16 07:18:28;;;;;;;14.77;8.23;;;22.60;44.20;;;;;;5072971;28;20012;-75
2022/05/16 07:20:55;;;;;;;15.07;8.70;;;22.70;43.80;;;;;;5092306;28;20020;-75
2022/05/16 07:23:22;;;;;;;18.70;8.27;;;22.80;43.60;;;;;;5074112;28;20027;-75
2022/05/16 07:28:33;;;;;;;15.60;7.80;;;22.90;43.40;;;;;;5068068;28;20027;-75
2022/05/16 07:30:59;;;;;;;13.48;6.82;;;23.10;43.60;;;;;;5068369;28;20031;-75
2022/05/16 07:33:25;;;;;;;13.90;7.07;;;23.20;43.70;;;;;;5082525;28;20024;-75
2022/05/16 07:35:52;;;;;;;12.30;7.15;;;23.30;43.40;;;;;;5076165;28;20032;-75
2022/05/16 07:38:23;;;;;;;17.77;6.60;;;23.40;43.40;;;;;;5055576;28;20025;-75
2022/05/16 07:40:50;;;;;;;16.50;7.13;;;23.60;43.30;;;;;;5071065;28;20036;-75
2022/05/16 07:43:16;;;;;;;12.23;5.55;;;23.80;43.20;;;;;;5065825;28;20032;-74
2022/05/16 07:45:42;;;;;;;9.82;4.78;;;24.00;42.80;;;;;;5058598;28;20458;-74
2022/05/16 07:48:08;;;;;;;13.05;5.63;;;24.10;42.00;;;;;;5064246;28;20031;-75
2022/05/16 07:50:38;;;;;;;24.20;6.57;;;24.40;41.90;;;;;;5067519;28;20535;-74
2022/05/16 07:53:11;;;;;;;15.40;6.30;;;24.50;41.10;;;;;;5057845;28;20079;-74
2022/05/16 07:55:39;;;;;;;16.30;6.25;;;24.60;40.90;;;;;;5053930;28;20027;-76
2022/05/16 07:58:05;;;;;;;14.43;5.90;;;24.70;40.20;;;;;;5053756;28;20041;-75
2022/05/16 08:00:31;;;;;;;9.13;5.05;;;24.80;39.60;;;;;;5067108;28;20032;-75
2022/05/16 08:02:57;;;;;;;16.38;4.95;;;24.90;39.70;;;;;;5060343;28;20024;-80
2022/05/16 08:05:23;;;;;;;12.07;4.53;;;24.90;39.40;;;;;;5053878;28;20036;-74
2022/05/16 08:10:36;;;;;;;13.80;4.97;;;25.00;39.40;;;;;;5053970;28;20060;-74
2022/05/16 08:13:05;;;;;;;7.22;4.50;;;25.20;39.20;;;;;;5053656;28;20043;-75
2022/05/16 08:15:31;;;;;;;13.82;5.07;;;25.30;39.20;;;;;;5053591;28;20032;-74
2022/05/16 08:17:57;;;;;;;28.88;5.55;;;25.40;38.30;;;;;;5053517;28;20032;-75
2022/05/16 08:20:25;;;;;;;21.55;5.47;;;25.50;38.50;;;;;;5045296;28;20112;-75
2022/05/16 08:22:51;;;;;;;11.30;4.90;;;25.70;38.30;;;;;;5073556;28;20021;-75
2022/05/16 08:25:17;;;;;;;11.27;5.03;;;25.80;38.20;;;;;;5073794;28;20100;-74
2022/05/16 08:27:43;;;;;;;12.75;5.03;;;26.00;38.10;;;;;;5073339;28;20023;-74
2022/05/16 08:30:09;;;;;;;14.10;4.75;;;26.10;37.10;;;;;;5055438;28;20099;-74
2022/05/16 08:32:35;;;;;;;12.02;4.75;;;26.20;37.00;;;;;;5073317;28;20108;-75
2022/05/16 08:35:05;;;;;;;15.45;5.38;;;26.40;37.00;;;;;;5073238;28;20154;-75
2022/05/16 08:40:16;;;;;;;15.68;4.45;;;26.60;36.90;;;;;;5073535;28;20109;-74
2022/05/16 08:42:41;;;;;;;10.57;4.78;;;26.80;36.30;;;;;;5072940;28;20024;-74
2022/05/16 08:45:19;;;;;;;10.23;4.75;;;26.90;36.70;;;;;;5073028;28;20089;-74
2022/05/16 08:47:54;;;;;;;10.68;4.20;;;27.00;36.70;;;;;;5073060;28;20021;-75
2022/05/16 08:50:34;;;;;;;11.57;5.10;;;27.20;36.70;;;;;;5073091;28;20099;-74
2022/05/16 08:53:13;;;;;;;15.63;5.93;;;27.40;36.20;;;;;;5055184;28;20021;-74
2022/05/16 08:55:47;;;;;;;11.70;4.43;;;27.50;35.50;;;;;;5054993;28;20025;-74
2022/05/16 08:58:34;;;;;;;20.30;5.30;;;27.60;35.00;;;;;;5072737;28;20115;-75
2022/05/16 09:01:12;;;;;;;9.50;3.92;;;27.70;34.60;;;;;;5072956;28;20096;-74
2022/05/16 09:04:13;;;;;;;9.73;4.38;;;27.80;34.70;;;;;;5072676;28;20054;-74
2022/05/16 09:06:48;;;;;;;10.40;4.68;;;28.00;34.80;;;;;;5060110;28;20039;-74
2022/05/16 09:09:18;;;;;;;12.80;4.85;;;28.10;34.90;;;;;;5072835;28;20028;-74
2022/05/16 09:11:53;;;;;;;8.23;4.55;;;28.20;34.10;;;;;;5072814;28;20103;-75
2022/05/16 09:14:29;;;;;;;13.07;4.85;;;28.30;33.70;;;;;;5054736;28;20024;-74
2022/05/16 09:17:01;;;;;;;15.73;5.07;;;28.40;33.50;;;;;;5072717;28;20032;-75
2022/05/16 09:19:45;;;;;;;16.63;5.93;;;28.50;32.90;;;;;;5072480;28;20103;-73
2022/05/16 09:22:15;;;;;;;;;;;28.50;33.00;;;;;;5072968;28;20028;-74
2022/05/16 09:25:04;;;;;;;10.05;4.95;;;28.60;34.30;;;;;;5072564;28;19909;-74
2022/05/16 09:30:30;;;;;;;11.55;4.80;;;28.60;33.00;;;;;;5075753;28;20027;-74
2022/05/16 09:33:05;;;;;;;15.50;4.55;;;28.60;32.40;;;;;;5061131;28;20025;-72
2022/05/16 09:35:37;;;;;;;8.05;4.30;;;28.60;32.40;;;;;;5079082;28;20024;-73
2022/05/16 09:38:05;;;;;;;8.82;3.75;;;28.60;32.70;;;;;;5079039;28;20099;-73
2022/05/16 09:40:37;;;;;;;13.95;4.10;;;28.60;33.00;;;;;;5060990;28;20029;-73
2022/05/16 09:43:20;;;;;;;7.63;4.55;;;28.60;32.70;;;;;;5060991;28;20028;-72
2022/05/16 09:46:03;;;;;;;17.02;5.40;;;28.60;32.70;;;;;;5061001;28;20021;-74
2022/05/16 09:48:29;;;;;;;12.53;4.70;;;28.70;32.60;;;;;;5079138;28;20461;-74
2022/05/16 09:51:06;;;;;;;8.93;3.60;;;28.70;32.40;;;;;;5078931;28;20266;-72
2022/05/16 09:53:36;;;;;;;11.82;4.97;;;28.70;32.30;;;;;;5078930;28;20362;-73
2022/05/16 09:56:26;;;;;;;6.43;3.65;;;28.80;32.10;;;;;;5079008;28;20016;-73
2022/05/16 09:58:59;;;;;;;13.30;4.07;;;28.80;32.60;;;;;;5078673;28;20041;-73
2022/05/16 10:01:35;;;;;;;11.27;3.87;;;28.80;32.00;;;;;;5078856;28;20104;-74
2022/05/16 10:04:19;;;;;;;10.23;4.60;;;28.80;32.30;;;;;;5061180;28;20715;-73
2022/05/16 10:07:03;;;;;;;6.63;3.42;;;28.90;32.60;;;;;;5079091;28;20100;-73
2022/05/16 10:09:38;;;;;;;16.48;4.63;;;28.90;32.30;;;;;;5078790;28;20377;-73
2022/05/16 10:12:08;;;;;;;9.25;4.32;;;29.00;32.20;;;;;;5078823;28;20048;-73
2022/05/16 10:14:36;;;;;;;13.15;3.38;;;29.00;32.20;;;;;;5078760;28;20588;-74
2022/05/16 10:17:04;;;;;;;10.48;3.80;;;29.10;31.90;;;;;;5078714;28;20112;-73
2022/05/16 10:19:32;;;;;;;12.35;4.50;;;29.20;31.80;;;;;;5078747;28;20494;-73
2022/05/16 10:22:16;;;;;;;17.73;5.15;;;29.20;31.60;;;;;;5060686;28;20029;-74
2022/05/16 10:24:45;;;;;;;10.63;3.80;;;29.30;32.00;;;;;;5078794;28;20017;-74
2022/05/16 10:27:13;;;;;;;10.38;3.97;;;29.40;31.70;;;;;;5060732;28;20020;-73
2022/05/16 10:29:45;;;;;;;26.75;4.55;;;29.50;31.70;;;;;;5060763;28;20021;-74
2022/05/16 10:35:16;;;;;;;13.88;4.63;;;29.60;31.30;;;;;;5078664;28;20437;-74
2022/05/16 10:37:45;;;;;;;11.25;4.30;;;29.70;31.00;;;;;;5078538;28;20029;-74
2022/05/16 10:40:27;;;;;;;11.02;4.18;;;29.70;31.10;;;;;;5060596;28;20036;-74
2022/05/16 10:43:31;;;;;;;12.52;3.88;;;29.80;31.00;;;;;;5057484;28;20032;-74
2022/05/16 10:46:10;;;;;;;11.15;4.10;;;29.90;31.30;;;;;;5070062;28;20436;-73
2022/05/16 10:48:45;;;;;;;10.02;4.60;;;30.10;30.80;;;;;;5075340;28;20478;-73
2022/05/16 10:51:19;;;;;;;11.68;4.13;;;30.30;30.20;;;;;;5057317;28;20020;-73
2022/05/16 10:54:38;;;;;;;16.55;4.22;;;30.40;30.30;;;;;;5075296;28;20017;-73
2022/05/16 10:57:20;;;;;;;6.03;3.38;;;30.60;30.50;;;;;;4974296;28;20492;-73
2022/05/16 11:00:18;;;;;;;17.52;3.50;;;30.80;30.10;;;;;;4974051;28;20146;-74
2022/05/16 11:03:04;;;;;;;9.68;4.30;;;31.00;30.50;;;;;;4916606;29;20054;-73
2022/05/16 11:06:00;;;;;;;11.30;4.00;;;31.10;29.80;;;;;;4916692;29;20119;-74
2022/05/16 11:08:37;;;;;;;10.30;3.90;;;31.20;30.00;;;;;;4916638;29;20434;-74
2022/05/16 11:11:29;;;;;;;8.95;4.00;;;31.30;29.50;;;;;;4900331;29;20040;-73
2022/05/16 11:14:09;;;;;;;6.65;2.80;;;31.40;29.70;;;;;;4927178;29;20118;-73
2022/05/16 11:16:38;;;;;;;8.93;3.45;;;31.40;29.40;;;;;;4905790;29;20535;-73
2022/05/16 11:19:25;;;;;;;6.20;3.35;;;31.50;29.50;;;;;;4900329;29;20092;-74
2022/05/16 11:22:15;;;;;;;9.68;3.67;;;31.50;29.40;;;;;;4915958;29;20052;-73
2022/05/16 11:24:52;;;;;;;9.15;3.83;;;31.60;29.70;;;;;;4916202;29;20411;-72
2022/05/16 11:27:50;;;;;;;8.70;3.72;;;31.50;29.30;;;;;;4919014;29;20035;-73
2022/05/16 11:30:26;;;;;;;6.75;3.53;;;31.40;29.10;;;;;;4943891;28;20033;-73
2022/05/16 11:33:06;;;;;;;7.40;3.28;;;31.30;29.20;;;;;;5032094;28;20113;-73
2022/05/16 11:35:51;;;;;;;5.57;3.20;;;31.20;29.50;;;;;;5032051;28;20053;-74
2022/05/16 11:38:22;;;;;;;9.90;3.17;;;31.10;29.60;;;;;;5038946;28;20041;-73
2022/05/16 11:41:06;;;;;;;6.18;3.03;;;30.90;29.60;;;;;;5056138;28;20039;-73
2022/05/16 11:43:37;;;;;;;7.15;3.38;;;30.80;29.60;;;;;;5056127;28;20069;-73
2022/05/16 11:46:27;;;;;;;7.30;3.60;;;30.60;29.80;;;;;;5055954;28;20028;-74
2022/05/16 11:48:59;;;;;;;11.05;3.67;;;30.40;29.90;;;;;;5074009;28;20416;-74
2022/05/16 11:51:33;;;;;;;8.50;3.85;;;30.30;30.20;;;;;;5073454;28;20032;-74
2022/05/16 11:54:03;;;;;;;11.65;3.25;;;30.20;30.70;;;;;;5073172;28;20024;-74
2022/05/16 12:02:40;;;;;;;9.02;3.90;;;30.10;30.90;;;;;;5073886;28;20031;-75
2022/05/16 12:05:20;;;;;;;9.35;3.50;;;30.10;31.10;;;;;;5055738;28;20368;-74
2022/05/16 12:07:52;;;;;;;7.70;2.90;;;30.10;31.00;;;;;;5073607;28;20021;-74
2022/05/16 12:10:27;;;;;;;4.38;2.58;;;30.10;31.10;;;;;;5073515;28;20051;-73
2022/05/16 12:13:18;;;;;;;6.43;3.55;;;30.10;31.30;;;;;;5073471;28;20075;-74
2022/05/16 12:15:46;;;;;;;9.10;3.30;;;30.00;31.30;;;;;;5055567;28;20021;-74
2022/05/16 12:18:35;;;;;;;6.75;3.38;;;30.00;31.30;;;;;;5053236;28;20051;-72
2022/05/16 12:21:05;;;;;;;5.03;3.17;;;29.90;31.50;;;;;;5035415;28;20112;-73
2022/05/16 12:23:49;;;;;;;8.65;3.60;;;29.90;32.00;;;;;;5053096;28;20473;-73
2022/05/16 12:26:26;;;;;;;9.32;3.28;;;29.90;31.70;;;;;;5053172;28;20025;-74
2022/05/16 12:29:16;;;;;;;5.28;2.90;;;29.90;31.80;;;;;;5053042;28;20021;-73
2022/05/16 12:31:44;;;;;;;7.78;3.05;;;29.90;31.80;;;;;;5052646;28;20029;-73
2022/05/16 12:34:14;;;;;;;6.97;3.00;;;29.90;32.20;;;;;;5035111;28;20031;-73
2022/05/16 12:36:40;;;;;;;9.85;3.70;;;29.90;32.20;;;;;;5052992;28;20017;-74
2022/05/16 12:39:22;;;;;;;7.13;2.80;;;29.90;32.00;;;;;;5052969;28;20024;-73
2022/05/16 12:42:10;;;;;;;5.95;2.70;;;29.90;32.20;;;;;;5052829;28;20017;-74
2022/05/16 12:44:52;;;;;;;6.15;3.00;;;29.90;31.70;;;;;;5035300;28;20390;-73
2022/05/16 12:47:30;;;;;;;7.50;3.00;;;29.90;31.60;;;;;;5052755;28;20021;-73
2022/05/16 12:50:15;;;;;;;12.95;2.97;;;29.90;31.50;;;;;;5052766;28;20071;-72
2022/05/16 12:52:53;;;;;;;7.18;2.38;;;29.90;31.30;;;;;;5052750;28;20029;-73
2022/05/16 12:55:56;;;;;;;5.75;3.15;;;29.80;30.90;;;;;;5052694;28;20108;-73
2022/05/16 12:59:03;;;;;;;7.95;3.30;;;29.80;30.50;;;;;;5052504;28;20049;-73
2022/05/16 13:01:35;;;;;;;3.63;2.58;;;29.70;29.50;;;;;;5052585;28;20112;-73
2022/05/16 13:04:57;;;;;;;6.70;2.88;;;29.70;29.80;;;;;;5052334;28;20035;-73
2022/05/16 13:07:47;;;;;;;12.77;2.58;;;29.80;29.60;;;;;;4971810;28;20097;-74
2022/05/16 13:10:39;;;;;;;3.78;2.15;;;29.80;29.70;;;;;;4971795;28;20027;-74
2022/05/16 13:13:19;;;;;;;8.93;1.98;;;29.80;29.10;;;;;;5054854;28;20043;-73
2022/05/16 13:16:09;;;;;;;5.22;2.83;;;29.90;28.80;;;;;;5072501;28;20086;-73
2022/05/16 13:18:51;;;;;;;8.38;2.42;;;29.90;28.40;;;;;;5072478;28;20021;-75
2022/05/16 13:21:18;;;;;;;5.28;2.20;;;29.90;28.60;;;;;;5072342;28;20548;-73
2022/05/16 13:23:44;;;;;;;4.93;2.17;;;30.00;28.60;;;;;;5054260;28;20114;-73
2022/05/16 13:31:45;;;;;;;4.13;2.45;;;30.30;28.60;;;;;;5072188;28;20039;-73
2022/05/16 13:34:13;;;;;;;4.90;2.33;;;30.60;28.70;;;;;;5072261;28;20082;-73
2022/05/16 13:36:46;;;;;;;8.32;2.25;;;31.00;28.50;;;;;;5072290;28;20024;-74
2022/05/16 13:39:15;;;;;;;6.93;2.95;;;31.40;27.90;;;;;;5072279;28;20078;-74
2022/05/16 13:41:41;;;;;;;8.07;2.40;;;31.80;27.80;;;;;;5071992;28;20363;-74
2022/05/16 13:44:12;;;;;;;5.03;2.33;;;32.30;27.00;;;;;;5072069;28;20385;-74
2022/05/16 13:46:38;;;;;;;3.28;2.17;;;32.80;26.80;;;;;;5072036;28;20027;-75
2022/05/16 13:49:06;;;;;;;4.72;2.47;;;33.30;26.60;;;;;;5071890;28;20330;-74